Cramlington, United Kingdom
Current Conditions -  °F | °C
As of 3:20 AM on Friday 28 Nov 2014 (Local Time) from EGNT Reporting Station
Broken Clouds Broken Clouds  
Wind Chill: 43°   Ceiling: 500
Heat Index: 43°   Visibility: 6mi
Dew Point: 43°   Wind: 2mph
Humidity: 100%   Direction: 100°E
Pressure: 29.68"   Gusts: NA
Location:  55.09°N, 1.59°W
Report Text: EGNT 280320Z 10002KT 9999 BKN005 06/06 Q1005
Loading
Personal Weather Stations






























Interactive Weather Map New forecast layout! Learn more

10-Day Weather Forecast

Advertisements
Track Severe Weather on mobile